Time;durP1;ratioP1;P1;durP2;ratioP2;P2;SDS_P1;SDS_P2;PMS_P1;PMS_P2;Temp;Humidity;BMP_temperature;BMP_pressure;BME280_temperature;BME280_humidity;BME280_pressure;Samples;Min_cycle;Max_cycle;Signal;HPM_P1;HPM_P2
2021/12/26 00:00:44;;;;;;;;;;;-3.20;91.40;;;;;;5032268;28;19913;-74
2021/12/26 00:03:10;;;;;;;;;;;-3.30;91.20;;;;;;5032810;28;20346;-75
2021/12/26 00:05:35;;;;;;;;;;;-3.40;91.30;;;;;;5032351;28;19952;-74
2021/12/26 00:08:01;;;;;;;;;;;-3.50;91.40;;;;;;5032060;28;19971;-74
2021/12/26 00:10:28;;;;;;;;;;;-3.60;91.40;;;;;;5032172;28;19971;-74
2021/12/26 00:12:55;;;;;;;;;;;-3.60;91.60;;;;;;5032290;28;19924;-74
2021/12/26 00:15:21;;;;;;;;;;;-3.60;91.70;;;;;;5032065;28;19916;-74
2021/12/26 00:17:46;;;;;;;;;;;-3.70;91.80;;;;;;5032555;28;19917;-74
2021/12/26 00:20:12;;;;;;;;;;;-3.70;91.90;;;;;;5032263;28;19929;-74
2021/12/26 00:22:38;;;;;;;;;;;-3.60;91.90;;;;;;5030910;28;19913;-74
2021/12/26 00:25:04;;;;;;;;;;;-3.60;91.90;;;;;;5032105;28;20343;-74
2021/12/26 00:27:30;;;;;;;;;;;-3.50;91.80;;;;;;5032161;28;19920;-74
2021/12/26 00:29:55;;;;;;;;;;;-3.30;91.70;;;;;;5031539;28;20019;-74
2021/12/26 00:32:21;;;;;;;;;;;-3.40;91.40;;;;;;5031661;28;19936;-74
2021/12/26 00:34:50;;;;;;;;;;;-3.60;91.10;;;;;;5031734;28;20032;-75
2021/12/26 00:37:16;;;;;;;;;;;-3.70;91.30;;;;;;5031815;28;19917;-73
2021/12/26 00:39:41;;;;;;;;;;;-3.50;91.50;;;;;;5037184;28;19913;-73
2021/12/26 00:42:07;;;;;;;;;;;-3.40;91.40;;;;;;5038845;28;20331;-75
2021/12/26 00:44:38;;;;;;;;;;;-3.20;91.20;;;;;;5038461;28;19973;-74
2021/12/26 00:47:04;;;;;;;;;;;-3.20;91.00;;;;;;5038282;28;19913;-73
2021/12/26 00:49:30;;;;;;;;;;;-3.10;91.00;;;;;;5038288;28;20349;-74
2021/12/26 00:51:55;;;;;;;;;;;-3.10;91.20;;;;;;5038472;28;20343;-74
2021/12/26 00:54:21;;;;;;;;;;;-3.10;90.90;;;;;;5038246;28;19909;-74
2021/12/26 00:56:47;;;;;;;;;;;-3.10;90.90;;;;;;5037755;28;20217;-74
2021/12/26 00:59:12;;;;;;;;;;;-3.10;90.90;;;;;;5038393;28;19924;-74
2021/12/26 01:01:38;;;;;;;;;;;-3.20;90.80;;;;;;5038165;28;19920;-74
2021/12/26 01:04:03;;;;;;;;;;;-3.20;90.80;;;;;;5037046;28;19925;-73
2021/12/26 01:06:29;;;;;;;;;;;-3.30;90.80;;;;;;5038231;28;19909;-75
2021/12/26 01:08:55;;;;;;;;;;;-3.30;90.90;;;;;;5038667;28;19992;-74
2021/12/26 01:11:36;;;;;;;;;;;-3.20;90.90;;;;;;5037606;28;19944;-74
2021/12/26 01:14:04;;;;;;;;;;;-3.10;90.70;;;;;;5038052;28;20343;-73
2021/12/26 01:16:30;;;;;;;;;;;-3.10;90.50;;;;;;5038166;28;19982;-74
2021/12/26 01:19:03;;;;;;;;;;;-3.10;90.50;;;;;;5037294;28;19913;-74
2021/12/26 01:21:28;;;;;;;;;;;-2.90;90.60;;;;;;5038316;28;19963;-74
2021/12/26 01:23:59;;;;;;;;;;;-3.30;90.50;;;;;;5038516;28;20305;-74
2021/12/26 01:26:25;;;;;;;;;;;-3.50;90.20;;;;;;5038291;28;19913;-74
2021/12/26 01:28:51;;;;;;;;;;;-3.40;90.60;;;;;;5038126;28;20254;-74
2021/12/26 01:31:19;;;;;;;;;;;-3.40;90.70;;;;;;5036772;28;19929;-74
2021/12/26 01:33:45;;;;;;;;;;;-3.50;90.50;;;;;;5038009;28;19960;-74
2021/12/26 01:36:11;;;;;;;;;;;-3.60;90.60;;;;;;5038386;28;19943;-74
2021/12/26 01:38:36;;;;;;;;;;;-3.70;90.50;;;;;;5037918;28;19917;-75
2021/12/26 01:41:08;;;;;;;;;;;-4.00;90.50;;;;;;5037803;28;20567;-75
2021/12/26 01:43:35;;;;;;;;;;;-4.00;90.90;;;;;;5037791;28;19920;-73
2021/12/26 01:46:00;;;;;;;;;;;-3.90;91.10;;;;;;5036791;28;20016;-74
2021/12/26 01:48:26;;;;;;;;;;;-3.90;90.90;;;;;;5037835;28;20074;-73
2021/12/26 01:50:52;;;;;;;;;;;-3.70;91.10;;;;;;5034644;28;19921;-75
2021/12/26 01:53:19;;;;;;;;;;;-4.00;90.70;;;;;;5034900;28;19917;-74
2021/12/26 01:55:46;;;;;;;;;;;-4.00;90.90;;;;;;5034638;28;19925;-73
2021/12/26 01:58:32;;;;;;;;;;;-4.00;91.10;;;;;;5034716;28;19925;-74
2021/12/26 02:00:59;;;;;;;;;;;-4.00;90.90;;;;;;5034318;28;19929;-74
2021/12/26 02:03:25;;;;;;;;;;;-4.00;91.00;;;;;;5034489;28;19909;-74
2021/12/26 02:05:51;;;;;;;;;;;-4.10;91.00;;;;;;5035087;28;19906;-75
2021/12/26 02:08:16;;;;;;;;;;;-4.00;91.10;;;;;;5033670;28;19914;-73
2021/12/26 02:10:42;;;;;;;;;;;-4.10;91.10;;;;;;5033127;28;20278;-75
2021/12/26 02:13:07;;;;;;;;;;;-4.20;91.00;;;;;;5034491;28;19944;-74
2021/12/26 02:15:33;;;;;;;;;;;-4.20;91.40;;;;;;5033032;28;19913;-74
2021/12/26 02:17:59;;;;;;;;;;;-4.30;91.30;;;;;;5034714;28;20000;-75
2021/12/26 02:20:29;;;;;;;;;;;-4.20;91.50;;;;;;5034340;28;19913;-74
2021/12/26 02:23:01;;;;;;;;;;;-4.20;91.50;;;;;;5033149;28;19913;-74
2021/12/26 02:28:14;;;;;;;;;;;-4.20;91.40;;;;;;5034270;28;19975;-73
2021/12/26 02:30:40;;;;;;;;;;;-4.30;91.20;;;;;;5033784;28;20005;-74
2021/12/26 02:33:10;;;;;;;;;;;-4.20;91.10;;;;;;5033736;28;20386;-74
2021/12/26 02:35:36;;;;;;;;;;;-4.30;91.00;;;;;;5027833;28;19970;-74
2021/12/26 02:38:02;;;;;;;;;;;-4.30;91.20;;;;;;5014065;28;20648;-75
2021/12/26 02:40:27;;;;;;;;;;;-4.40;91.30;;;;;;5013889;28;20333;-73
2021/12/26 02:42:53;;;;;;;;;;;-4.40;91.30;;;;;;5013121;28;19921;-74
2021/12/26 02:45:18;;;;;;;;;;;-4.40;91.30;;;;;;5013930;28;19910;-73
2021/12/26 02:47:45;;;;;;;;;;;-4.40;91.30;;;;;;5013629;28;19906;-74
2021/12/26 02:50:17;;;;;;;;;;;-4.40;91.20;;;;;;5013793;28;19913;-73
2021/12/26 02:52:43;;;;;;;;;;;-4.50;91.30;;;;;;5013901;28;19921;-75
2021/12/26 02:55:09;;;;;;;;;;;-4.40;91.30;;;;;;5013964;28;19914;-74
2021/12/26 02:57:35;;;;;;;;;;;-4.50;91.40;;;;;;5013871;28;19935;-74
2021/12/26 03:00:03;;;;;;;;;;;-4.50;91.40;;;;;;5014168;28;19909;-73
2021/12/26 03:02:28;;;;;;;;;;;-4.60;91.40;;;;;;5011731;28;19920;-73
2021/12/26 03:04:54;;;;;;;;;;;-4.70;91.40;;;;;;5013558;28;19913;-74
2021/12/26 03:07:19;;;;;;;;;;;-4.60;91.60;;;;;;5012475;28;20346;-73
2021/12/26 03:09:47;;;;;;;;;;;-4.70;91.40;;;;;;5013648;28;19924;-75
2021/12/26 03:12:13;;;;;;;;;;;-4.50;91.60;;;;;;5013882;28;19917;-75
2021/12/26 03:14:39;;;;;;;;;;;-4.40;91.40;;;;;;5013504;28;19983;-73
2021/12/26 03:17:05;;;;;;;;;;;-4.20;91.30;;;;;;5013291;28;19952;-73
2021/12/26 03:19:31;;;;;;;;;;;-4.10;91.00;;;;;;5013191;28;20039;-74
2021/12/26 03:21:56;;;;;;;;;;;-4.00;90.90;;;;;;5013272;28;19913;-73
2021/12/26 03:24:22;;;;;;;;;;;-4.10;90.70;;;;;;5013434;28;19980;-73
2021/12/26 03:26:47;;;;;;;;;;;-4.30;90.60;;;;;;5013541;28;19906;-74
2021/12/26 03:29:13;;;;;;;;;;;-4.40;90.80;;;;;;5013119;28;19921;-73
2021/12/26 03:31:41;;;;;;;;;;;-4.50;91.10;;;;;;5011960;28;20252;-73
2021/12/26 03:34:06;;;;;;;;;;;-4.50;91.20;;;;;;5013198;28;20007;-74
2021/12/26 03:36:32;;;;;;;;;;;-4.50;91.30;;;;;;5011997;28;20013;-73
2021/12/26 03:38:57;;;;;;;;;;;-4.40;91.20;;;;;;5012274;28;19961;-73
2021/12/26 03:41:23;;;;;;;;;;;-4.60;91.10;;;;;;5011794;28;19956;-75
2021/12/26 03:43:48;;;;;;;;;;;-4.60;91.20;;;;;;5012958;28;19997;-74
2021/12/26 03:46:14;;;;;;;;;;;-4.60;91.40;;;;;;5012915;28;19914;-73
2021/12/26 03:48:39;;;;;;;;;;;-4.70;91.40;;;;;;5012978;28;20382;-72
2021/12/26 03:51:05;;;;;;;;;;;-4.60;91.50;;;;;;5013597;28;20251;-74
2021/12/26 03:53:31;;;;;;;;;;;-4.50;91.30;;;;;;5013770;28;19925;-74
2021/12/26 03:55:56;;;;;;;;;;;-4.30;91.20;;;;;;5012924;28;19945;-74
2021/12/26 03:58:22;;;;;;;;;;;-4.20;90.90;;;;;;5012851;28;19933;-74
2021/12/26 04:00:48;;;;;;;;;;;-4.10;90.70;;;;;;5012967;28;20493;-74
2021/12/26 04:03:14;;;;;;;;;;;-4.10;90.60;;;;;;5011879;28;20461;-73
2021/12/26 04:05:39;;;;;;;;;;;-4.20;90.40;;;;;;5012833;28;19918;-74
2021/12/26 04:08:05;;;;;;;;;;;-4.40;90.10;;;;;;5012447;28;19914;-73
2021/12/26 04:10:31;;;;;;;;;;;-4.50;90.30;;;;;;5012431;28;20336;-73
2021/12/26 04:12:58;;;;;;;;;;;-4.70;90.30;;;;;;5012163;28;19913;-73
2021/12/26 04:15:23;;;;;;;;;;;-4.80;90.30;;;;;;5012347;28;19909;-74
2021/12/26 04:17:51;;;;;;;;;;;-4.90;90.40;;;;;;5013028;28;19920;-73
2021/12/26 04:20:17;;;;;;;;;;;-4.80;90.70;;;;;;5012339;28;19975;-73
2021/12/26 04:22:42;;;;;;;;;;;-4.50;90.80;;;;;;5012340;28;19929;-73
2021/12/26 04:25:08;;;;;;;;;;;-4.40;90.50;;;;;;5012369;28;19925;-73
2021/12/26 04:27:34;;;;;;;;;;;-4.30;90.30;;;;;;5011563;28;19910;-73
2021/12/26 04:29:59;;;;;;;;;;;-4.30;90.20;;;;;;5012709;28;19905;-73
2021/12/26 04:32:25;;;;;;;;;;;-4.50;90.10;;;;;;5012252;28;20000;-74
2021/12/26 04:34:50;;;;;;;;;;;-4.80;90.10;;;;;;5012160;28;20264;-73
2021/12/26 04:37:16;;;;;;;;;;;-4.70;90.30;;;;;;5012197;28;19928;-73
2021/12/26 04:39:41;;;;;;;;;;;-4.80;90.20;;;;;;5011511;28;20370;-73
2021/12/26 04:42:07;;;;;;;;;;;-4.90;90.40;;;;;;5012664;28;19914;-73
2021/12/26 04:44:33;;;;;;;;;;;-4.80;90.40;;;;;;5012445;28;19917;-74
2021/12/26 04:46:59;;;;;;;;;;;-4.70;90.60;;;;;;5011263;28;19948;-74
2021/12/26 04:49:24;;;;;;;;;;;-4.50;90.50;;;;;;5012226;28;20263;-74
2021/12/26 04:51:50;;;;;;;;;;;-4.30;90.30;;;;;;5012222;28;19914;-73
2021/12/26 04:54:15;;;;;;;;;;;-4.30;90.10;;;;;;5012159;28;19968;-74
2021/12/26 04:56:41;;;;;;;;;;;-4.30;90.10;;;;;;5012764;28;19909;-74
2021/12/26 04:59:06;;;;;;;;;;;-4.40;90.00;;;;;;5012317;28;19917;-74
2021/12/26 05:01:33;;;;;;;;;;;-4.30;90.10;;;;;;5010889;28;19921;-74
2021/12/26 05:03:59;;;;;;;;;;;-4.30;90.10;;;;;;5012060;28;19932;-74
2021/12/26 05:06:27;;;;;;;;;;;-4.30;89.90;;;;;;5011910;28;20311;-74
2021/12/26 05:08:53;;;;;;;;;;;-4.30;89.80;;;;;;5012520;28;20015;-74
2021/12/26 05:11:19;;;;;;;;;;;-4.30;89.90;;;;;;5011965;28;19996;-74
2021/12/26 05:13:44;;;;;;;;;;;-4.50;89.70;;;;;;5011670;28;20511;-73
2021/12/26 05:16:10;;;;;;;;;;;-4.70;90.20;;;;;;5011893;28;19913;-73
2021/12/26 05:18:35;;;;;;;;;;;-4.80;90.50;;;;;;5010861;28;19940;-73
2021/12/26 05:21:01;;;;;;;;;;;-5.00;90.60;;;;;;5012329;28;19920;-73
2021/12/26 05:23:26;;;;;;;;;;;-4.90;90.80;;;;;;5010799;28;19925;-73
2021/12/26 05:25:52;;;;;;;;;;;-4.90;90.80;;;;;;5013190;28;19968;-73
2021/12/26 05:28:17;;;;;;;;;;;-5.00;90.70;;;;;;5015459;28;19918;-71
2021/12/26 05:30:43;;;;;;;;;;;-5.00;90.80;;;;;;5014372;28;20221;-73
2021/12/26 05:33:09;;;;;;;;;;;-5.10;90.90;;;;;;5015885;28;19910;-73
2021/12/26 05:35:34;;;;;;;;;;;-5.10;91.00;;;;;;5015319;28;19968;-73
2021/12/26 05:38:00;;;;;;;;;;;-5.10;91.00;;;;;;5015182;28;19917;-74
2021/12/26 05:40:25;;;;;;;;;;;-4.90;91.10;;;;;;5014169;28;20060;-74
2021/12/26 05:42:51;;;;;;;;;;;-5.00;90.90;;;;;;5014454;28;20059;-73
2021/12/26 05:45:17;;;;;;;;;;;-5.00;90.80;;;;;;5014066;28;20028;-73
2021/12/26 05:47:42;;;;;;;;;;;-4.80;91.10;;;;;;5014890;28;19913;-73
2021/12/26 05:50:09;;;;;;;;;;;-4.60;90.50;;;;;;5015321;28;19914;-74
2021/12/26 05:52:34;;;;;;;;;;;-4.50;90.30;;;;;;5014877;28;19914;-74
2021/12/26 05:55:00;;;;;;;;;;;-4.40;90.10;;;;;;5014020;28;20343;-75
2021/12/26 05:57:25;;;;;;;;;;;-4.50;90.10;;;;;;5014852;28;20044;-74
2021/12/26 05:59:51;;;;;;;;;;;-4.60;90.20;;;;;;5015247;28;19921;-73
2021/12/26 06:02:17;;;;;;;;;;;-4.50;90.20;;;;;;5014799;28;19921;-73
2021/12/26 06:04:43;;;;;;;;;;;-4.40;90.20;;;;;;5013861;28;20375;-74
2021/12/26 06:07:09;;;;;;;;;;;-4.50;90.10;;;;;;5013595;28;19956;-74
2021/12/26 06:09:34;;;;;;;;;;;-4.60;90.10;;;;;;5015701;28;19972;-73
2021/12/26 06:12:00;;;;;;;;;;;-4.70;90.20;;;;;;5015159;28;19910;-73
2021/12/26 06:14:25;;;;;;;;;;;-4.70;90.30;;;;;;5014960;28;19914;-73
2021/12/26 06:16:51;;;;;;;;;;;-4.80;90.30;;;;;;5014566;28;19921;-74
2021/12/26 06:19:16;;;;;;;;;;;-4.80;90.20;;;;;;5013350;28;19997;-73
2021/12/26 06:21:41;;;;;;;;;;;-4.90;90.40;;;;;;5013585;28;19917;-72
2021/12/26 06:24:08;;;;;;;;;;;-4.80;90.50;;;;;;5014829;28;20366;-73
2021/12/26 06:26:34;;;;;;;;;;;-4.80;90.50;;;;;;5014833;28;19914;-74
2021/12/26 06:28:59;;;;;;;;;;;-4.90;90.40;;;;;;5014718;28;19914;-74
2021/12/26 06:31:25;;;;;;;;;;;-4.80;90.50;;;;;;5014087;28;19932;-74
2021/12/26 06:33:50;;;;;;;;;;;-4.90;90.50;;;;;;5014471;28;20319;-73
2021/12/26 06:36:16;;;;;;;;;;;-4.80;90.50;;;;;;5013730;28;19996;-75
2021/12/26 06:38:42;;;;;;;;;;;-4.70;90.60;;;;;;5014637;28;19909;-73
2021/12/26 06:41:08;;;;;;;;;;;-4.60;90.60;;;;;;5013038;28;20370;-75
2021/12/26 06:43:35;;;;;;;;;;;-4.60;90.50;;;;;;5014126;28;19928;-74
2021/12/26 06:46:01;;;;;;;;;;;-4.30;90.50;;;;;;5014075;28;19918;-74
2021/12/26 06:48:26;;;;;;;;;;;-4.40;90.30;;;;;;5014387;28;19916;-73
2021/12/26 06:50:52;;;;;;;;;;;-4.40;90.20;;;;;;5014234;28;19917;-73
2021/12/26 06:53:18;;;;;;;;;;;-4.40;90.20;;;;;;5013904;28;19953;-73
2021/12/26 06:55:44;;;;;;;;;;;-4.40;90.10;;;;;;5015671;28;19935;-74
2021/12/26 06:58:10;;;;;;;;;;;-4.40;90.20;;;;;;5012680;28;19956;-74
2021/12/26 07:00:36;;;;;;;;;;;-4.30;90.20;;;;;;5012857;28;20295;-73
2021/12/26 07:03:02;;;;;;;;;;;-4.40;90.00;;;;;;5013890;28;20020;-72
2021/12/26 07:05:27;;;;;;;;;;;-4.40;90.10;;;;;;5014279;28;19917;-74
2021/12/26 07:07:53;;;;;;;;;;;-4.40;90.10;;;;;;5013761;28;19913;-74
2021/12/26 07:10:19;;;;;;;;;;;-4.70;90.20;;;;;;5013696;28;20258;-74
2021/12/26 07:12:44;;;;;;;;;;;-4.70;90.40;;;;;;5013576;28;19958;-73
2021/12/26 07:15:10;;;;;;;;;;;-4.70;90.30;;;;;;5013395;28;20009;-73
2021/12/26 07:17:36;;;;;;;;;;;-4.80;90.20;;;;;;5012507;28;19918;-74
2021/12/26 07:20:02;;;;;;;;;;;-4.90;90.30;;;;;;5013383;28;20606;-74
2021/12/26 07:22:28;;;;;;;;;;;-4.90;90.60;;;;;;5013446;28;19917;-74
2021/12/26 07:24:53;;;;;;;;;;;-4.90;90.80;;;;;;5013499;28;19913;-73
2021/12/26 07:27:18;;;;;;;;;;;-4.70;90.80;;;;;;5013285;28;19928;-73
2021/12/26 07:29:44;;;;;;;;;;;-4.70;90.60;;;;;;5013590;28;19940;-72
2021/12/26 07:32:10;;;;;;;;;;;-4.60;90.60;;;;;;5012799;28;20016;-74
2021/12/26 07:34:36;;;;;;;;;;;-4.70;90.40;;;;;;5013142;28;19957;-73
2021/12/26 07:37:02;;;;;;;;;;;-4.80;90.50;;;;;;5013130;28;19960;-74
2021/12/26 07:39:27;;;;;;;;;;;-4.50;90.50;;;;;;5011965;28;19921;-75
2021/12/26 07:41:53;;;;;;;;;;;-4.40;90.30;;;;;;5013564;28;19909;-74
2021/12/26 07:44:18;;;;;;;;;;;-4.40;90.10;;;;;;5013180;28;19924;-73
2021/12/26 07:46:44;;;;;;;;;;;-4.10;90.10;;;;;;5012732;28;19913;-74
2021/12/26 07:49:10;;;;;;;;;;;-4.30;90.00;;;;;;5012104;28;19976;-74
2021/12/26 07:51:35;;;;;;;;;;;-4.30;90.10;;;;;;5012791;28;19914;-74
2021/12/26 07:54:01;;;;;;;;;;;-4.60;90.00;;;;;;5013254;28;19913;-73
2021/12/26 07:56:28;;;;;;;;;;;-4.70;90.50;;;;;;5012868;28;19947;-73
2021/12/26 07:58:53;;;;;;;;;;;-4.70;90.60;;;;;;5011616;28;20295;-73
2021/12/26 08:01:19;;;;;;;;;;;-4.70;90.70;;;;;;5012819;28;19924;-74
2021/12/26 08:03:44;;;;;;;;;;;-4.50;90.70;;;;;;5012803;28;19968;-73
2021/12/26 08:06:13;;;;;;;;;;;-4.40;90.50;;;;;;5012337;28;19993;-74
2021/12/26 08:08:38;;;;;;;;;;;-4.30;90.40;;;;;;5011389;28;20259;-73
2021/12/26 08:11:04;;;;;;;;;;;-4.30;90.30;;;;;;5012735;28;19913;-74
2021/12/26 08:13:31;;;;;;;;;;;-4.30;90.40;;;;;;5011464;28;19972;-75
2021/12/26 08:15:56;;;;;;;;;;;-4.00;90.50;;;;;;5011609;28;19917;-74
2021/12/26 08:18:22;;;;;;;;;;;-4.20;90.40;;;;;;5011270;28;20288;-74
2021/12/26 08:20:48;;;;;;;;;;;-4.10;90.30;;;;;;5012846;28;19910;-74
2021/12/26 08:23:16;;;;;;;;;;;-4.00;90.30;;;;;;5011315;28;20550;-73
2021/12/26 08:25:42;;;;;;;;;;;-3.90;90.20;;;;;;5012414;28;19929;-75
2021/12/26 08:28:07;;;;;;;;;;;-3.90;90.10;;;;;;5012202;28;19913;-75
2021/12/26 08:30:34;;;;;;;;;;;-3.90;90.10;;;;;;5011108;28;19910;-74
2021/12/26 08:33:05;;;;;;;;;;;-3.90;90.10;;;;;;5011863;28;20082;-74
2021/12/26 08:35:31;;;;;;;;;;;-3.80;90.20;;;;;;5012599;28;19920;-74
2021/12/26 08:37:56;;;;;;;;;;;-3.80;90.20;;;;;;5012347;28;19918;-74
2021/12/26 08:40:22;;;;;;;;;;;-3.80;90.30;;;;;;5011284;28;19932;-74
2021/12/26 08:42:47;;;;;;;;;;;-3.80;90.30;;;;;;5012354;28;19939;-74
2021/12/26 08:45:13;;;;;;;;;;;-3.70;90.40;;;;;;5012566;28;20004;-74
2021/12/26 08:47:39;;;;;;;;;;;-3.70;90.40;;;;;;5012252;28;20455;-74
2021/12/26 08:50:05;;;;;;;;;;;-3.70;90.50;;;;;;5011181;28;19918;-74
2021/12/26 08:52:31;;;;;;;;;;;-3.70;90.50;;;;;;5012066;28;19913;-74
2021/12/26 08:54:56;;;;;;;;;;;-3.60;90.50;;;;;;5012221;28;19913;-74
2021/12/26 08:57:21;;;;;;;;;;;-3.50;90.50;;;;;;5011847;28;20397;-74
2021/12/26 08:59:47;;;;;;;;;;;-3.50;90.60;;;;;;5013909;28;19948;-74
2021/12/26 09:02:13;;;;;;;;;;;-3.60;90.60;;;;;;5016123;28;20267;-74
2021/12/26 09:04:39;;;;;;;;;;;-3.50;90.80;;;;;;5015905;28;19914;-74
2021/12/26 09:07:05;;;;;;;;;;;-3.50;90.70;;;;;;5014937;28;19940;-74
2021/12/26 09:09:30;;;;;;;;;;;-3.40;90.90;;;;;;5015184;28;20019;-74
2021/12/26 09:11:56;;;;;;;;;;;-3.20;90.90;;;;;;5016433;28;20411;-74
2021/12/26 09:14:22;;;;;;;;;;;-3.30;90.70;;;;;;5015850;28;19967;-74
2021/12/26 09:16:47;;;;;;;;;;;-3.40;90.80;;;;;;5015491;28;19921;-73
2021/12/26 09:19:13;;;;;;;;;;;-3.30;91.00;;;;;;5015977;28;19992;-74
2021/12/26 09:21:38;;;;;;;;;;;-3.20;90.80;;;;;;5016056;28;19924;-74
2021/12/26 09:24:04;;;;;;;;;;;-3.20;90.80;;;;;;5015067;28;20362;-74
2021/12/26 09:26:30;;;;;;;;;;;-3.30;90.70;;;;;;5014444;28;19913;-74
2021/12/26 09:28:56;;;;;;;;;;;-3.30;90.90;;;;;;5014491;28;19913;-74
2021/12/26 09:31:22;;;;;;;;;;;-3.40;91.00;;;;;;5015272;28;19968;-75
2021/12/26 09:33:47;;;;;;;;;;;-3.40;91.10;;;;;;5014506;28;20470;-76
2021/12/26 09:36:13;;;;;;;;;;;-3.40;91.20;;;;;;5015680;28;20012;-75
2021/12/26 09:38:38;;;;;;;;;;;-3.50;91.30;;;;;;5015369;28;19944;-74
2021/12/26 09:41:04;;;;;;;;;;;-3.50;91.40;;;;;;5015474;28;19985;-74
2021/12/26 09:43:29;;;;;;;;;;;-3.60;91.50;;;;;;5014128;28;19996;-75
2021/12/26 09:45:55;;;;;;;;;;;-3.50;91.60;;;;;;5015537;28;19913;-75
2021/12/26 09:48:22;;;;;;;;;;;-3.50;91.50;;;;;;5014080;28;19920;-73
2021/12/26 09:50:47;;;;;;;;;;;-3.20;91.60;;;;;;5015359;28;19916;-75
2021/12/26 09:53:13;;;;;;;;;;;-3.50;91.50;;;;;;5014155;28;19913;-74
2021/12/26 09:55:39;;;;;;;;;;;-3.50;91.60;;;;;;5014912;28;19914;-75
2021/12/26 09:58:04;;;;;;;;;;;-3.40;91.60;;;;;;5014591;28;20229;-74
2021/12/26 10:00:32;;;;;;;;;;;-3.30;91.70;;;;;;5014910;28;19909;-74
2021/12/26 10:03:16;;;;;;;;;;;-3.10;91.60;;;;;;5014977;28;20340;-75
2021/12/26 10:05:53;;;;;;;;;;;-3.20;91.50;;;;;;5015062;28;19949;-74
2021/12/26 10:08:19;;;;;;;;;;;-3.10;91.30;;;;;;5015230;28;20327;-76
2021/12/26 10:11:06;;;;;;;;;;;-3.10;91.40;;;;;;5014271;28;19936;-74
2021/12/26 10:13:41;;;;;;;;;;;-3.00;91.70;;;;;;5014111;28;20383;-75
2021/12/26 10:16:07;;;;;;;;;;;-2.80;91.50;;;;;;5014501;28;20079;-73
2021/12/26 10:18:39;;;;;;;;;;;-2.70;91.30;;;;;;5014562;28;19926;-74
2021/12/26 10:21:21;;;;;;;;;;;-2.60;91.40;;;;;;5013854;28;20347;-75
2021/12/26 10:23:46;;;;;;;;;;;-2.60;91.30;;;;;;5014909;28;19914;-74
2021/12/26 10:26:22;;;;;;;;;;;-2.40;91.40;;;;;;5013622;28;19926;-74
2021/12/26 10:29:11;;;;;;;;;;;-2.30;91.30;;;;;;5014454;28;20405;-75
2021/12/26 10:31:41;;;;;;;;;;;-2.40;91.00;;;;;;5013628;28;20021;-73
2021/12/26 10:34:06;;;;;;;;;;;-2.20;91.20;;;;;;5014280;28;19971;-74
2021/12/26 10:36:32;;;;;;;;;;;-2.20;90.90;;;;;;5014389;28;19917;-74
2021/12/26 10:39:08;;;;;;;;;;;-2.10;91.10;;;;;;5014872;28;19910;-74
2021/12/26 10:41:39;;;;;;;;;;;-2.10;91.20;;;;;;5013683;28;19914;-73
2021/12/26 10:44:04;;;;;;;;;;;-1.90;91.20;;;;;;5014392;28;19925;-73
2021/12/26 10:46:31;;;;;;;;;;;-1.80;91.10;;;;;;5014038;28;19913;-74
2021/12/26 10:49:16;;;;;;;;;;;-1.70;91.00;;;;;;5014259;28;20498;-73
2021/12/26 10:51:42;;;;;;;;;;;-1.70;90.80;;;;;;5014104;28;20348;-73
2021/12/26 10:54:12;;;;;;;;;;;-1.60;90.80;;;;;;5014264;28;19913;-73
2021/12/26 10:56:37;;;;;;;;;;;-1.60;90.90;;;;;;5012733;28;19921;-73
2021/12/26 10:59:21;;;;;;;;;;;-1.50;91.00;;;;;;5013978;28;20527;-73
2021/12/26 11:01:48;;;;;;;;;;;-1.40;90.70;;;;;;5013341;28;20355;-72
2021/12/26 11:04:14;;;;;;;;;;;-1.50;90.60;;;;;;5012782;28;20420;-73
2021/12/26 11:06:59;;;;;;;;;;;-1.40;90.80;;;;;;5013860;28;20008;-73
2021/12/26 11:09:24;;;;;;;;;;;-1.40;90.80;;;;;;5013852;28;19909;-73
2021/12/26 11:12:04;;;;;;;;;;;-1.30;90.80;;;;;;5013968;28;19906;-72
2021/12/26 11:14:29;;;;;;;;;;;-1.20;90.90;;;;;;5013800;28;20315;-73
2021/12/26 11:16:55;;;;;;;;;;;-1.20;91.00;;;;;;5013570;28;20346;-72
2021/12/26 11:19:39;;;;;;;;;;;-1.10;90.90;;;;;;5013512;28;19924;-71
2021/12/26 11:22:05;;;;;;;;;;;-1.10;90.70;;;;;;5012354;28;20173;-73
2021/12/26 11:24:30;;;;;;;;;;;-1.00;90.80;;;;;;5012695;28;19914;-72
2021/12/26 11:26:56;;;;;;;;;;;-0.90;90.40;;;;;;5014039;28;19949;-72
2021/12/26 11:29:21;;;;;;;;;;;-0.90;90.20;;;;;;5012638;28;19913;-73
2021/12/26 11:31:50;;;;;;;;;;;-1.00;90.20;;;;;;5012188;28;20012;-74
2021/12/26 11:34:16;;;;;;;;;;;-0.80;90.30;;;;;;5013544;28;20382;-73
2021/12/26 11:36:42;;;;;;;;;;;-0.70;90.30;;;;;;5013205;28;19945;-73
2021/12/26 11:39:08;;;;;;;;;;;-0.20;90.70;;;;;;5013444;28;19917;-72
2021/12/26 11:41:43;;;;;;;;;;;0.50;90.30;;;;;;5013242;28;19991;-72
2021/12/26 11:44:08;;;;;;;;;;;1.30;89.20;;;;;;5013264;28;20338;-73
2021/12/26 11:46:40;;;;;;;;;;;1.80;85.50;;;;;;5013199;28;20348;-74
2021/12/26 11:49:08;;;;;;;;;;;2.40;83.70;;;;;;5012018;28;19967;-74
2021/12/26 11:51:42;;;;;;;;;;;2.80;82.60;;;;;;5013054;28;19914;-76
2021/12/26 11:54:26;;;;;;;;;;;2.90;80.20;;;;;;5013479;28;19924;-74
2021/12/26 11:57:14;;;;;;;;;;;3.10;80.30;;;;;;5013068;28;19929;-75
2021/12/26 11:59:58;;;;;;;;;;;3.10;79.30;;;;;;5012870;28;20263;-75
2021/12/26 12:02:38;;;;;;;;;;;2.90;78.70;;;;;;5012912;28;19955;-74
2021/12/26 12:05:24;;;;;;;;;;;2.90;79.20;;;;;;5012860;28;20339;-75
2021/12/26 12:07:53;;;;;;;;;;;3.00;79.20;;;;;;5012196;28;19953;-75
2021/12/26 12:10:35;;;;;;;;;;;3.00;79.20;;;;;;5012813;28;19932;-74
2021/12/26 12:13:01;;;;;;;;;;;3.10;79.10;;;;;;5011604;28;19921;-74
2021/12/26 12:15:39;;;;;;;;;;;3.20;79.90;;;;;;5012550;28;19909;-75
2021/12/26 12:18:12;;;;;;;;;;;2.90;79.10;;;;;;5012984;28;19924;-75
2021/12/26 12:20:38;;;;;;;;;;;2.80;78.90;;;;;;5012619;28;20553;-75
2021/12/26 12:23:03;;;;;;;;;;;2.80;78.80;;;;;;5012679;28;19971;-75
2021/12/26 12:25:38;;;;;;;;;;;2.70;78.50;;;;;;5012547;28;19973;-75
2021/12/26 12:28:14;;;;;;;;;;;2.60;78.70;;;;;;5011595;28;19914;-74
2021/12/26 12:30:41;;;;;;;;;;;2.50;79.30;;;;;;5011491;28;20362;-74
2021/12/26 12:33:16;;;;;;;;;;;2.70;79.70;;;;;;5013052;28;19913;-74
2021/12/26 12:35:52;;;;;;;;;;;2.50;79.30;;;;;;5012407;28;19914;-74
2021/12/26 12:38:29;;;;;;;;;;;2.60;79.50;;;;;;5012525;28;20432;-74
2021/12/26 12:40:55;;;;;;;;;;;2.40;79.00;;;;;;5012391;28;19914;-74
2021/12/26 12:43:22;;;;;;;;;;;2.10;79.10;;;;;;5011190;28;20308;-75
2021/12/26 12:45:55;;;;;;;;;;;1.90;79.50;;;;;;5011108;28;19921;-75
2021/12/26 12:48:20;;;;;;;;;;;1.80;80.10;;;;;;5012164;28;20382;-73
2021/12/26 12:50:46;;;;;;;;;;;1.70;80.30;;;;;;5012287;28;19941;-74
2021/12/26 12:53:31;;;;;;;;;;;1.60;80.80;;;;;;5012005;28;19928;-73
2021/12/26 12:55:57;;;;;;;;;;;1.50;81.30;;;;;;5011644;28;20012;-73
2021/12/26 12:58:31;;;;;;;;;;;1.30;81.40;;;;;;5011956;28;20013;-73
2021/12/26 13:00:57;;;;;;;;;;;1.30;81.70;;;;;;5012003;28;20348;-73
2021/12/26 13:03:23;;;;;;;;;;;1.30;81.90;;;;;;5011961;28;19922;-74
2021/12/26 13:05:49;;;;;;;;;;;1.30;82.50;;;;;;5012287;28;19964;-74
2021/12/26 13:08:16;;;;;;;;;;;1.30;82.30;;;;;;5011964;28;19924;-73
2021/12/26 13:10:42;;;;;;;;;;;1.30;82.90;;;;;;5011772;28;19956;-74
2021/12/26 13:13:10;;;;;;;;;;;1.30;83.00;;;;;;5012267;28;19922;-74
2021/12/26 13:15:46;;;;;;;;;;;1.30;82.90;;;;;;5010778;28;19921;-74
2021/12/26 13:18:12;;;;;;;;;;;1.20;83.10;;;;;;5012181;28;20316;-73
2021/12/26 13:20:37;;;;;;;;;;;1.20;83.30;;;;;;5011950;28;20024;-74
2021/12/26 13:23:04;;;;;;;;;;;1.20;83.50;;;;;;5012070;28;20008;-73
2021/12/26 13:25:34;;;;;;;;;;;1.20;83.60;;;;;;5012138;28;19914;-72
2021/12/26 13:28:20;;;;;;;;;;;1.10;83.50;;;;;;5011900;28;19937;-73
2021/12/26 13:30:48;;;;;;;;;;;1.10;83.30;;;;;;5011611;28;19929;-73
2021/12/26 13:33:18;;;;;;;;;;;1.10;83.90;;;;;;5012566;28;19910;-74
2021/12/26 13:35:43;;;;;;;;;;;1.00;83.90;;;;;;5011724;28;19917;-73
2021/12/26 13:38:12;;;;;;;;;;;0.90;83.90;;;;;;5012148;28;19924;-72
2021/12/26 13:40:42;;;;;;;;;;;1.00;84.50;;;;;;5011659;28;19917;-72
2021/12/26 13:43:08;;;;;;;;;;;1.00;84.50;;;;;;5010399;28;19961;-73
2021/12/26 13:45:34;;;;;;;;;;;1.20;84.20;;;;;;5011433;28;19909;-73
2021/12/26 13:48:00;;;;;;;;;;;1.20;83.60;;;;;;5013871;28;19909;-73
2021/12/26 13:50:26;;;;;;;;;;;1.10;83.80;;;;;;5014953;28;20086;-72
2021/12/26 13:53:18;;;;;;;;;;;1.20;83.90;;;;;;5015029;28;20461;-73
2021/12/26 13:55:44;;;;;;;;;;;1.20;83.90;;;;;;5014771;28;19924;-73
2021/12/26 13:58:11;;;;;;;;;;;1.20;84.10;;;;;;5013855;28;20236;-73
2021/12/26 14:00:46;;;;;;;;;;;1.20;83.60;;;;;;5014853;28;19914;-74
2021/12/26 14:03:11;;;;;;;;;;;1.20;83.40;;;;;;5015204;28;19910;-73
2021/12/26 14:05:37;;;;;;;;;;;1.20;83.70;;;;;;5014932;28;19913;-73
2021/12/26 14:08:11;;;;;;;;;;;1.20;83.60;;;;;;5014946;28;20279;-73
2021/12/26 14:10:37;;;;;;;;;;;1.30;83.40;;;;;;5014651;28;20358;-74
2021/12/26 14:13:05;;;;;;;;;;;1.40;83.50;;;;;;5014513;28;19917;-73
2021/12/26 14:15:34;;;;;;;;;;;1.30;82.70;;;;;;5014716;28;19909;-73
2021/12/26 14:18:04;;;;;;;;;;;1.30;82.80;;;;;;5014769;28;19925;-73
2021/12/26 14:20:48;;;;;;;;;;;1.20;82.60;;;;;;5014526;28;20011;-74
2021/12/26 14:23:15;;;;;;;;;;;1.20;82.30;;;;;;5014774;28;19913;-72